sensor_id;sensor_type;location;lat;lon;timestamp;pressure;altitude;pressure_sealevel;temperature;humidity
38812;BME280;24553;51.640;-0.752;2023-07-20T00:01:30;100937.66;;;14.05;100.00
38812;BME280;24553;51.640;-0.752;2023-07-20T00:03:55;100944.59;;;13.93;100.00
38812;BME280;24553;51.640;-0.752;2023-07-20T00:06:25;100942.94;;;13.85;100.00
38812;BME280;24553;51.640;-0.752;2023-07-20T00:08:52;100943.78;;;13.92;100.00
38812;BME280;24553;51.640;-0.752;2023-07-20T00:11:17;100945.81;;;13.84;100.00
38812;BME280;24553;51.640;-0.752;2023-07-20T00:13:43;100940.66;;;13.82;100.00
38812;BME280;24553;51.640;-0.752;2023-07-20T00:16:09;100935.94;;;13.78;100.00
38812;BME280;24553;51.640;-0.752;2023-07-20T00:18:34;100931.63;;;13.77;100.00
38812;BME280;24553;51.640;-0.752;2023-07-20T00:20:59;100924.28;;;13.79;100.00
38812;BME280;24553;51.640;-0.752;2023-07-20T00:23:25;100930.19;;;13.81;100.00
38812;BME280;24553;51.640;-0.752;2023-07-20T00:25:51;100928.56;;;13.80;100.00
38812;BME280;24553;51.640;-0.752;2023-07-20T00:28:16;100928.38;;;13.81;100.00
38812;BME280;24553;51.640;-0.752;2023-07-20T00:30:41;100928.56;;;13.80;100.00
38812;BME280;24553;51.640;-0.752;2023-07-20T00:33:10;100930.97;;;13.68;100.00
38812;BME280;24553;51.640;-0.752;2023-07-20T00:35:36;100931.59;;;13.63;100.00
38812;BME280;24553;51.640;-0.752;2023-07-20T00:38:03;100928.50;;;13.60;100.00
38812;BME280;24553;51.640;-0.752;2023-07-20T00:40:28;100941.59;;;13.55;100.00
38812;BME280;24553;51.640;-0.752;2023-07-20T00:42:53;100931.38;;;13.58;100.00
38812;BME280;24553;51.640;-0.752;2023-07-20T00:45:19;100938.72;;;13.49;100.00
38812;BME280;24553;51.640;-0.752;2023-07-20T00:47:44;100939.56;;;13.57;100.00
38812;BME280;24553;51.640;-0.752;2023-07-20T00:50:09;100941.63;;;13.61;100.00
38812;BME280;24553;51.640;-0.752;2023-07-20T00:52:37;100941.84;;;13.66;100.00
38812;BME280;24553;51.640;-0.752;2023-07-20T00:55:04;100947.00;;;13.74;100.00
38812;BME280;24553;51.640;-0.752;2023-07-20T00:57:30;100942.53;;;13.82;100.00
38812;BME280;24553;51.640;-0.752;2023-07-20T00:59:55;100938.03;;;13.89;100.00
38812;BME280;24553;51.640;-0.752;2023-07-20T01:02:21;100936.19;;;13.96;100.00
38812;BME280;24553;51.640;-0.752;2023-07-20T01:04:46;100944.19;;;13.96;100.00
38812;BME280;24553;51.640;-0.752;2023-07-20T01:12:45;100934.59;;;13.47;100.00
38812;BME280;24553;51.640;-0.752;2023-07-20T01:15:11;100942.38;;;13.42;100.00
38812;BME280;24553;51.640;-0.752;2023-07-20T01:17:37;100936.00;;;13.36;100.00
38812;BME280;24553;51.640;-0.752;2023-07-20T01:20:03;100931.06;;;13.33;100.00
38812;BME280;24553;51.640;-0.752;2023-07-20T01:33:25;100934.25;;;12.87;100.00
38812;BME280;24553;51.640;-0.752;2023-07-20T01:35:56;100939.06;;;12.70;100.00
38812;BME280;24553;51.640;-0.752;2023-07-20T01:38:23;100945.53;;;12.61;100.00
38812;BME280;24553;51.640;-0.752;2023-07-20T01:40:49;100942.13;;;12.46;100.00
38812;BME280;24553;51.640;-0.752;2023-07-20T01:43:16;100946.16;;;12.13;100.00
38812;BME280;24553;51.640;-0.752;2023-07-20T01:45:41;100945.69;;;12.31;100.00
38812;BME280;24553;51.640;-0.752;2023-07-20T01:48:06;100947.13;;;12.34;100.00
38812;BME280;24553;51.640;-0.752;2023-07-20T01:50:32;100941.22;;;12.32;100.00
38812;BME280;24553;51.640;-0.752;2023-07-20T01:52:59;100939.81;;;12.36;100.00
38812;BME280;24553;51.640;-0.752;2023-07-20T01:55:24;100934.69;;;12.34;100.00
38812;BME280;24553;51.640;-0.752;2023-07-20T01:57:50;100933.00;;;12.27;100.00
38812;BME280;24553;51.640;-0.752;2023-07-20T02:00:15;100931.97;;;12.28;100.00
38812;BME280;24553;51.640;-0.752;2023-07-20T02:02:41;100926.81;;;12.26;100.00
38812;BME280;24553;51.640;-0.752;2023-07-20T02:05:06;100929.72;;;12.31;100.00
38812;BME280;24553;51.640;-0.752;2023-07-20T02:07:32;100932.66;;;12.36;100.00
38812;BME280;24553;51.640;-0.752;2023-07-20T02:09:58;100930.88;;;12.43;100.00
38812;BME280;24553;51.640;-0.752;2023-07-20T02:12:23;100931.31;;;12.47;100.00
38812;BME280;24553;51.640;-0.752;2023-07-20T02:14:48;100929.09;;;12.51;100.00
38812;BME280;24553;51.640;-0.752;2023-07-20T02:17:16;100933.13;;;12.47;100.00
38812;BME280;24553;51.640;-0.752;2023-07-20T02:19:41;100943.78;;;12.47;100.00
38812;BME280;24553;51.640;-0.752;2023-07-20T02:22:06;100932.56;;;12.51;100.00
38812;BME280;24553;51.640;-0.752;2023-07-20T02:24:33;100923.13;;;12.49;100.00
38812;BME280;24553;51.640;-0.752;2023-07-20T02:26:59;100926.97;;;12.39;100.00
38812;BME280;24553;51.640;-0.752;2023-07-20T02:29:24;100920.50;;;12.27;100.00
38812;BME280;24553;51.640;-0.752;2023-07-20T02:31:49;100935.75;;;11.61;100.00
38812;BME280;24553;51.640;-0.752;2023-07-20T02:34:15;100924.75;;;12.00;100.00
38812;BME280;24553;51.640;-0.752;2023-07-20T02:36:40;100931.53;;;12.03;100.00
38812;BME280;24553;51.640;-0.752;2023-07-20T02:39:08;100930.13;;;12.07;100.00
38812;BME280;24553;51.640;-0.752;2023-07-20T02:41:33;100927.66;;;12.05;100.00
38812;BME280;24553;51.640;-0.752;2023-07-20T02:43:58;100925.84;;;12.06;100.00
38812;BME280;24553;51.640;-0.752;2023-07-20T02:46:24;100926.03;;;12.04;100.00
38812;BME280;24553;51.640;-0.752;2023-07-20T02:48:49;100929.50;;;12.05;100.00
38812;BME280;24553;51.640;-0.752;2023-07-20T02:51:14;100922.56;;;12.04;100.00
38812;BME280;24553;51.640;-0.752;2023-07-20T02:53:40;100925.38;;;12.02;100.00
38812;BME280;24553;51.640;-0.752;2023-07-20T02:56:06;100929.25;;;11.99;100.00
38812;BME280;24553;51.640;-0.752;2023-07-20T02:58:34;100926.97;;;11.96;100.00
38812;BME280;24553;51.640;-0.752;2023-07-20T03:01:02;100920.03;;;11.95;100.00
38812;BME280;24553;51.640;-0.752;2023-07-20T03:03:27;100924.88;;;11.92;100.00
38812;BME280;24553;51.640;-0.752;2023-07-20T03:05:53;100926.16;;;11.96;100.00
38812;BME280;24553;51.640;-0.752;2023-07-20T03:08:19;100929.00;;;11.94;100.00
38812;BME280;24553;51.640;-0.752;2023-07-20T03:10:45;100933.56;;;12.00;100.00
38812;BME280;24553;51.640;-0.752;2023-07-20T03:13:10;100927.41;;;12.00;100.00
38812;BME280;24553;51.640;-0.752;2023-07-20T03:15:35;100929.81;;;11.95;100.00
38812;BME280;24553;51.640;-0.752;2023-07-20T03:18:01;100931.38;;;11.89;100.00
38812;BME280;24553;51.640;-0.752;2023-07-20T03:20:26;100933.09;;;11.82;100.00
38812;BME280;24553;51.640;-0.752;2023-07-20T03:22:51;100939.00;;;11.77;100.00
38812;BME280;24553;51.640;-0.752;2023-07-20T03:25:17;100938.75;;;11.72;100.00
38812;BME280;24553;51.640;-0.752;2023-07-20T03:27:42;100943.97;;;11.66;100.00
38812;BME280;24553;51.640;-0.752;2023-07-20T03:30:08;100947.38;;;11.60;100.00
38812;BME280;24553;51.640;-0.752;2023-07-20T03:32:35;100944.91;;;11.58;100.00
38812;BME280;24553;51.640;-0.752;2023-07-20T03:35:00;100943.44;;;11.55;100.00
38812;BME280;24553;51.640;-0.752;2023-07-20T03:37:25;100948.50;;;11.50;100.00
38812;BME280;24553;51.640;-0.752;2023-07-20T03:39:51;100952.81;;;11.51;100.00
38812;BME280;24553;51.640;-0.752;2023-07-20T03:42:16;100939.53;;;11.51;100.00
38812;BME280;24553;51.640;-0.752;2023-07-20T03:44:41;100946.84;;;11.49;100.00
38812;BME280;24553;51.640;-0.752;2023-07-20T03:47:07;100944.66;;;11.38;100.00
38812;BME280;24553;51.640;-0.752;2023-07-20T03:49:32;100942.75;;;11.32;100.00
38812;BME280;24553;51.640;-0.752;2023-07-20T03:51:57;100943.38;;;11.34;100.00
38812;BME280;24553;51.640;-0.752;2023-07-20T03:54:23;100942.56;;;11.33;100.00
38812;BME280;24553;51.640;-0.752;2023-07-20T03:56:48;100942.47;;;11.27;100.00
38812;BME280;24553;51.640;-0.752;2023-07-20T03:59:14;100941.84;;;11.25;100.00
38812;BME280;24553;51.640;-0.752;2023-07-20T04:01:39;100940.47;;;11.29;100.00
38812;BME280;24553;51.640;-0.752;2023-07-20T04:04:07;100940.19;;;11.24;100.00
38812;BME280;24553;51.640;-0.752;2023-07-20T04:06:33;100942.66;;;11.25;100.00
38812;BME280;24553;51.640;-0.752;2023-07-20T04:08:58;100941.56;;;11.20;100.00
38812;BME280;24553;51.640;-0.752;2023-07-20T04:11:23;100942.84;;;11.09;100.00
38812;BME280;24553;51.640;-0.752;2023-07-20T04:13:49;100943.75;;;11.01;100.00
38812;BME280;24553;51.640;-0.752;2023-07-20T04:16:14;100940.66;;;10.98;100.00
38812;BME280;24553;51.640;-0.752;2023-07-20T04:18:39;100944.28;;;10.97;100.00
38812;BME280;24553;51.640;-0.752;2023-07-20T04:21:07;100945.84;;;10.91;100.00
38812;BME280;24553;51.640;-0.752;2023-07-20T04:23:32;100944.38;;;10.88;100.00
38812;BME280;24553;51.640;-0.752;2023-07-20T04:25:58;100941.94;;;10.87;100.00
38812;BME280;24553;51.640;-0.752;2023-07-20T04:28:23;100945.56;;;10.86;100.00
38812;BME280;24553;51.640;-0.752;2023-07-20T04:30:49;100947.56;;;10.84;100.00
38812;BME280;24553;51.640;-0.752;2023-07-20T04:33:16;100950.84;;;10.71;100.00
38812;BME280;24553;51.640;-0.752;2023-07-20T04:35:52;100945.56;;;10.86;100.00
38812;BME280;24553;51.640;-0.752;2023-07-20T04:38:18;100951.38;;;10.89;100.00
38812;BME280;24553;51.640;-0.752;2023-07-20T04:40:48;100948.75;;;10.81;100.00
38812;BME280;24553;51.640;-0.752;2023-07-20T04:43:14;100948.59;;;10.83;100.00
38812;BME280;24553;51.640;-0.752;2023-07-20T04:45:40;100948.44;;;10.84;100.00
38812;BME280;24553;51.640;-0.752;2023-07-20T04:48:09;100961.69;;;10.84;100.00
38812;BME280;24553;51.640;-0.752;2023-07-20T04:50:35;100956.28;;;10.93;100.00
38812;BME280;24553;51.640;-0.752;2023-07-20T04:53:00;100952.47;;;10.95;100.00
38812;BME280;24553;51.640;-0.752;2023-07-20T04:55:27;100951.38;;;10.89;100.00
38812;BME280;24553;51.640;-0.752;2023-07-20T04:57:53;100951.16;;;10.91;100.00
38812;BME280;24553;51.640;-0.752;2023-07-20T05:00:19;100953.44;;;10.94;100.00
38812;BME280;24553;51.640;-0.752;2023-07-20T05:02:45;100952.63;;;10.94;100.00
38812;BME280;24553;51.640;-0.752;2023-07-20T05:05:10;100949.81;;;10.95;100.00
38812;BME280;24553;51.640;-0.752;2023-07-20T05:07:35;100952.25;;;10.97;100.00
38812;BME280;24553;51.640;-0.752;2023-07-20T05:10:01;100947.78;;;10.97;100.00
38812;BME280;24553;51.640;-0.752;2023-07-20T05:12:26;100955.94;;;10.96;100.00
38812;BME280;24553;51.640;-0.752;2023-07-20T05:14:51;100959.94;;;10.91;100.00
38812;BME280;24553;51.640;-0.752;2023-07-20T05:17:17;100957.13;;;10.93;100.00
38812;BME280;24553;51.640;-0.752;2023-07-20T05:19:42;100964.53;;;10.98;100.00
38812;BME280;24553;51.640;-0.752;2023-07-20T05:22:07;100958.69;;;11.02;100.00
38812;BME280;24553;51.640;-0.752;2023-07-20T05:24:33;100962.06;;;11.11;100.00
38812;BME280;24553;51.640;-0.752;2023-07-20T05:26:58;100956.22;;;11.16;100.00
38812;BME280;24553;51.640;-0.752;2023-07-20T05:29:24;100949.72;;;11.18;100.00
38812;BME280;24553;51.640;-0.752;2023-07-20T05:31:50;100957.31;;;11.21;100.00
38812;BME280;24553;51.640;-0.752;2023-07-20T05:34:15;100953.75;;;11.29;100.00
38812;BME280;24553;51.640;-0.752;2023-07-20T05:36:41;100953.47;;;11.39;100.00
38812;BME280;24553;51.640;-0.752;2023-07-20T05:39:06;100957.75;;;11.54;100.00
38812;BME280;24553;51.640;-0.752;2023-07-20T05:41:32;100955.50;;;11.73;100.00
38812;BME280;24553;51.640;-0.752;2023-07-20T05:43:57;100955.31;;;11.89;100.00
38812;BME280;24553;51.640;-0.752;2023-07-20T05:46:22;100951.91;;;11.95;100.00
38812;BME280;24553;51.640;-0.752;2023-07-20T05:48:49;100946.22;;;11.98;100.00
38812;BME280;24553;51.640;-0.752;2023-07-20T05:51:14;100945.06;;;12.08;100.00
38812;BME280;24553;51.640;-0.752;2023-07-20T05:53:40;100944.97;;;12.16;100.00
38812;BME280;24553;51.640;-0.752;2023-07-20T05:56:06;100938.44;;;12.18;100.00
38812;BME280;24553;51.640;-0.752;2023-07-20T05:58:35;100933.81;;;12.27;100.00
38812;BME280;24553;51.640;-0.752;2023-07-20T06:01:00;100943.78;;;12.47;100.00
38812;BME280;24553;51.640;-0.752;2023-07-20T06:03:27;100941.75;;;12.49;100.00
38812;BME280;24553;51.640;-0.752;2023-07-20T06:05:58;100940.53;;;12.51;100.00
38812;BME280;24553;51.640;-0.752;2023-07-20T06:08:23;100940.47;;;12.66;100.00
38812;BME280;24553;51.640;-0.752;2023-07-20T06:10:52;100950.56;;;12.77;100.00
38812;BME280;24553;51.640;-0.752;2023-07-20T06:13:17;100943.06;;;12.87;100.00
38812;BME280;24553;51.640;-0.752;2023-07-20T06:15:43;100942.53;;;12.99;100.00
38812;BME280;24553;51.640;-0.752;2023-07-20T06:18:08;100939.03;;;12.98;100.00
38812;BME280;24553;51.640;-0.752;2023-07-20T06:20:34;100936.84;;;13.08;100.00
38812;BME280;24553;51.640;-0.752;2023-07-20T06:22:59;100933.19;;;13.16;100.00
38812;BME280;24553;51.640;-0.752;2023-07-20T06:25:24;100930.03;;;13.27;100.00
38812;BME280;24553;51.640;-0.752;2023-07-20T06:27:50;100936.84;;;13.43;100.00
38812;BME280;24553;51.640;-0.752;2023-07-20T06:30:19;100942.84;;;13.59;100.00
38812;BME280;24553;51.640;-0.752;2023-07-20T06:32:44;100935.31;;;13.69;100.00
38812;BME280;24553;51.640;-0.752;2023-07-20T06:35:10;100935.75;;;13.86;100.00
38812;BME280;24553;51.640;-0.752;2023-07-20T06:37:35;100931.50;;;14.05;100.00
38812;BME280;24553;51.640;-0.752;2023-07-20T06:40:02;100933.34;;;14.11;100.00
38812;BME280;24553;51.640;-0.752;2023-07-20T06:42:29;100931.50;;;14.11;100.00
38812;BME280;24553;51.640;-0.752;2023-07-20T06:44:54;100935.19;;;14.10;100.00
38812;BME280;24553;51.640;-0.752;2023-07-20T06:47:20;100922.06;;;14.29;100.00
38812;BME280;24553;51.640;-0.752;2023-07-20T06:49:45;100926.41;;;14.43;100.00
38812;BME280;24553;51.640;-0.752;2023-07-20T06:52:10;100927.44;;;14.55;100.00
38812;BME280;24553;51.640;-0.752;2023-07-20T06:54:36;100929.50;;;14.67;100.00
38812;BME280;24553;51.640;-0.752;2023-07-20T06:57:01;100924.53;;;14.83;100.00
38812;BME280;24553;51.640;-0.752;2023-07-20T06:59:27;100930.88;;;14.89;100.00
38812;BME280;24553;51.640;-0.752;2023-07-20T07:01:52;100930.03;;;15.02;100.00
38812;BME280;24553;51.640;-0.752;2023-07-20T07:04:17;100921.97;;;15.22;100.00
38812;BME280;24553;51.640;-0.752;2023-07-20T07:06:43;100918.84;;;15.32;100.00
38812;BME280;24553;51.640;-0.752;2023-07-20T07:09:09;100918.81;;;15.38;100.00
38812;BME280;24553;51.640;-0.752;2023-07-20T07:11:34;100922.84;;;15.61;100.00
38812;BME280;24553;51.640;-0.752;2023-07-20T07:14:00;100934.09;;;15.76;100.00
38812;BME280;24553;51.640;-0.752;2023-07-20T07:16:25;100921.72;;;15.82;100.00
38812;BME280;24553;51.640;-0.752;2023-07-20T07:18:51;100917.97;;;15.89;100.00
38812;BME280;24553;51.640;-0.752;2023-07-20T07:21:16;100918.56;;;15.98;100.00
38812;BME280;24553;51.640;-0.752;2023-07-20T07:23:42;100919.09;;;16.07;100.00
38812;BME280;24553;51.640;-0.752;2023-07-20T07:26:08;100917.19;;;16.14;100.00
38812;BME280;24553;51.640;-0.752;2023-07-20T07:28:33;100916.50;;;16.25;100.00
38812;BME280;24553;51.640;-0.752;2023-07-20T07:30:59;100913.00;;;16.50;100.00
38812;BME280;24553;51.640;-0.752;2023-07-20T07:33:24;100905.44;;;16.65;100.00
38812;BME280;24553;51.640;-0.752;2023-07-20T07:35:50;100905.78;;;16.75;100.00
38812;BME280;24553;51.640;-0.752;2023-07-20T07:38:17;100898.06;;;16.86;100.00
38812;BME280;24553;51.640;-0.752;2023-07-20T07:40:43;100904.97;;;16.93;100.00
38812;BME280;24553;51.640;-0.752;2023-07-20T07:43:08;100895.66;;;16.96;100.00
38812;BME280;24553;51.640;-0.752;2023-07-20T07:45:38;100900.50;;;17.06;100.00
38812;BME280;24553;51.640;-0.752;2023-07-20T07:48:04;100886.28;;;17.23;100.00
38812;BME280;24553;51.640;-0.752;2023-07-20T07:50:30;100882.41;;;17.38;100.00
38812;BME280;24553;51.640;-0.752;2023-07-20T07:52:55;100881.16;;;17.52;100.00
38812;BME280;24553;51.640;-0.752;2023-07-20T07:55:20;100877.28;;;17.66;100.00
38812;BME280;24553;51.640;-0.752;2023-07-20T07:57:46;100873.16;;;17.82;100.00
38812;BME280;24553;51.640;-0.752;2023-07-20T08:00:13;100872.47;;;17.87;100.00
38812;BME280;24553;51.640;-0.752;2023-07-20T08:02:40;100883.81;;;18.01;100.00
38812;BME280;24553;51.640;-0.752;2023-07-20T08:05:07;100875.66;;;18.07;100.00
38812;BME280;24553;51.640;-0.752;2023-07-20T08:07:32;100876.34;;;18.15;100.00
38812;BME280;24553;51.640;-0.752;2023-07-20T08:09:58;100870.31;;;18.31;100.00
38812;BME280;24553;51.640;-0.752;2023-07-20T08:12:24;100871.72;;;18.57;100.00
38812;BME280;24553;51.640;-0.752;2023-07-20T08:14:49;100873.47;;;18.51;100.00
38812;BME280;24553;51.640;-0.752;2023-07-20T08:17:15;100869.50;;;18.42;100.00
38812;BME280;24553;51.640;-0.752;2023-07-20T08:19:40;100869.59;;;18.47;100.00
38812;BME280;24553;51.640;-0.752;2023-07-20T08:22:07;100874.16;;;18.70;100.00
38812;BME280;24553;51.640;-0.752;2023-07-20T08:24:32;100877.78;;;18.88;100.00
38812;BME280;24553;51.640;-0.752;2023-07-20T08:26:58;100866.50;;;19.14;100.00
38812;BME280;24553;51.640;-0.752;2023-07-20T08:29:24;100865.41;;;19.27;100.00
38812;BME280;24553;51.640;-0.752;2023-07-20T08:31:49;100866.47;;;19.26;100.00
38812;BME280;24553;51.640;-0.752;2023-07-20T08:34:15;100861.94;;;19.15;100.00
38812;BME280;24553;51.640;-0.752;2023-07-20T08:36:40;100869.38;;;19.25;100.00
38812;BME280;24553;51.640;-0.752;2023-07-20T08:39:06;100864.34;;;19.28;100.00
38812;BME280;24553;51.640;-0.752;2023-07-20T08:41:34;100862.13;;;19.25;100.00
38812;BME280;24553;51.640;-0.752;2023-07-20T08:44:00;100862.22;;;19.30;100.00
38812;BME280;24553;51.640;-0.752;2023-07-20T08:46:27;100867.19;;;19.50;100.00
38812;BME280;24553;51.640;-0.752;2023-07-20T08:48:55;100872.44;;;19.57;100.00
38812;BME280;24553;51.640;-0.752;2023-07-20T08:51:21;100870.41;;;19.35;100.00
38812;BME280;24553;51.640;-0.752;2023-07-20T08:53:47;100865.00;;;19.47;100.00
38812;BME280;24553;51.640;-0.752;2023-07-20T08:56:16;100870.78;;;19.68;100.00
38812;BME280;24553;51.640;-0.752;2023-07-20T08:58:43;100868.38;;;19.43;100.00
38812;BME280;24553;51.640;-0.752;2023-07-20T09:01:10;100871.75;;;19.50;100.00
38812;BME280;24553;51.640;-0.752;2023-07-20T09:03:36;100863.06;;;19.59;100.00
38812;BME280;24553;51.640;-0.752;2023-07-20T09:06:04;100861.03;;;19.67;100.00
38812;BME280;24553;51.640;-0.752;2023-07-20T09:08:30;100864.78;;;19.66;100.00
38812;BME280;24553;51.640;-0.752;2023-07-20T09:10:56;100855.75;;;19.72;100.00
38812;BME280;24553;51.640;-0.752;2023-07-20T09:13:21;100857.75;;;19.93;100.00
38812;BME280;24553;51.640;-0.752;2023-07-20T09:15:52;100856.22;;;20.14;100.00
38812;BME280;24553;51.640;-0.752;2023-07-20T09:18:26;100860.66;;;20.42;100.00
38812;BME280;24553;51.640;-0.752;2023-07-20T09:20:53;100855.59;;;20.46;100.00
38812;BME280;24553;51.640;-0.752;2023-07-20T09:23:19;100855.88;;;20.27;100.00
38812;BME280;24553;51.640;-0.752;2023-07-20T09:25:44;100847.88;;;20.16;100.00
38812;BME280;24553;51.640;-0.752;2023-07-20T09:28:11;100854.22;;;20.43;100.00
38812;BME280;24553;51.640;-0.752;2023-07-20T09:30:37;100855.47;;;20.75;100.00
38812;BME280;24553;51.640;-0.752;2023-07-20T09:33:02;100848.06;;;20.65;100.00
38812;BME280;24553;51.640;-0.752;2023-07-20T09:35:28;100843.19;;;20.62;100.00
38812;BME280;24553;51.640;-0.752;2023-07-20T09:38:01;100843.56;;;20.92;100.00
38812;BME280;24553;51.640;-0.752;2023-07-20T09:40:26;100838.72;;;21.39;100.00
38812;BME280;24553;51.640;-0.752;2023-07-20T09:42:53;100828.84;;;21.49;100.00
38812;BME280;24553;51.640;-0.752;2023-07-20T09:45:41;100831.13;;;21.63;100.00
38812;BME280;24553;51.640;-0.752;2023-07-20T09:48:08;100830.19;;;21.74;100.00
38812;BME280;24553;51.640;-0.752;2023-07-20T09:50:34;100832.69;;;21.86;100.00
38812;BME280;24553;51.640;-0.752;2023-07-20T09:53:00;100829.22;;;21.90;100.00
38812;BME280;24553;51.640;-0.752;2023-07-20T09:55:28;100830.13;;;22.06;100.00
38812;BME280;24553;51.640;-0.752;2023-07-20T09:57:54;100827.38;;;21.96;100.00
38812;BME280;24553;51.640;-0.752;2023-07-20T10:00:21;100821.13;;;21.90;97.61
38812;BME280;24553;51.640;-0.752;2023-07-20T10:02:46;100818.59;;;22.16;96.27
38812;BME280;24553;51.640;-0.752;2023-07-20T10:05:13;100825.50;;;22.02;94.31
38812;BME280;24553;51.640;-0.752;2023-07-20T10:07:43;100824.09;;;21.94;96.80
38812;BME280;24553;51.640;-0.752;2023-07-20T10:10:10;100819.91;;;22.08;96.84
38812;BME280;24553;51.640;-0.752;2023-07-20T10:12:37;100818.59;;;22.16;93.13
38812;BME280;24553;51.640;-0.752;2023-07-20T10:17:43;100818.50;;;22.96;96.56
38812;BME280;24553;51.640;-0.752;2023-07-20T10:20:16;100809.97;;;23.29;96.07
38812;BME280;24553;51.640;-0.752;2023-07-20T10:22:43;100807.28;;;23.60;96.17
38812;BME280;24553;51.640;-0.752;2023-07-20T10:25:10;100807.59;;;23.79;93.04
38812;BME280;24553;51.640;-0.752;2023-07-20T10:27:36;100812.16;;;23.63;89.69
38812;BME280;24553;51.640;-0.752;2023-07-20T10:30:04;100811.03;;;23.44;89.90
38812;BME280;24553;51.640;-0.752;2023-07-20T10:32:30;100808.81;;;23.10;88.92
38812;BME280;24553;51.640;-0.752;2023-07-20T10:34:56;100801.22;;;23.02;87.38
38812;BME280;24553;51.640;-0.752;2023-07-20T10:37:53;100812.97;;;23.59;90.18
38812;BME280;24553;51.640;-0.752;2023-07-20T10:40:26;100808.84;;;23.25;86.20
38812;BME280;24553;51.640;-0.752;2023-07-20T10:45:42;100811.69;;;21.93;84.62
38812;BME280;24553;51.640;-0.752;2023-07-20T10:50:41;100808.56;;;22.43;85.18
38812;BME280;24553;51.640;-0.752;2023-07-20T10:53:12;100811.44;;;22.95;80.98
38812;BME280;24553;51.640;-0.752;2023-07-20T10:55:39;100794.31;;;23.67;81.13
38812;BME280;24553;51.640;-0.752;2023-07-20T10:58:09;100790.28;;;23.75;75.79
38812;BME280;24553;51.640;-0.752;2023-07-20T11:00:35;100799.97;;;23.35;76.65
38812;BME280;24553;51.640;-0.752;2023-07-20T11:03:01;100794.00;;;23.28;77.80
38812;BME280;24553;51.640;-0.752;2023-07-20T11:05:38;100793.72;;;23.24;73.42
38812;BME280;24553;51.640;-0.752;2023-07-20T11:08:13;100793.25;;;22.64;77.72
38812;BME280;24553;51.640;-0.752;2023-07-20T11:11:26;100792.31;;;22.38;77.72
38812;BME280;24553;51.640;-0.752;2023-07-20T11:14:01;100793.66;;;22.36;75.48
38812;BME280;24553;51.640;-0.752;2023-07-20T11:16:37;100785.28;;;23.00;76.09
38812;BME280;24553;51.640;-0.752;2023-07-20T11:19:04;100789.97;;;23.51;75.63
38812;BME280;24553;51.640;-0.752;2023-07-20T11:21:35;100782.41;;;23.79;74.48
38812;BME280;24553;51.640;-0.752;2023-07-20T11:24:03;100774.44;;;24.33;74.80
38812;BME280;24553;51.640;-0.752;2023-07-20T11:26:28;100774.63;;;24.63;73.88
38812;BME280;24553;51.640;-0.752;2023-07-20T11:28:54;100782.59;;;24.28;71.50
38812;BME280;24553;51.640;-0.752;2023-07-20T11:31:19;100782.94;;;23.65;72.23
38812;BME280;24553;51.640;-0.752;2023-07-20T11:33:45;100781.56;;;23.32;74.06
38812;BME280;24553;51.640;-0.752;2023-07-20T11:36:11;100782.38;;;23.33;76.56
38812;BME280;24553;51.640;-0.752;2023-07-20T11:38:36;100776.97;;;23.33;76.29
38812;BME280;24553;51.640;-0.752;2023-07-20T11:41:04;100778.56;;;23.18;75.22
38812;BME280;24553;51.640;-0.752;2023-07-20T11:43:30;100768.88;;;23.84;75.19
38812;BME280;24553;51.640;-0.752;2023-07-20T11:45:56;100764.31;;;24.70;74.92
38812;BME280;24553;51.640;-0.752;2023-07-20T11:48:22;100765.22;;;25.78;76.27
38812;BME280;24553;51.640;-0.752;2023-07-20T11:50:47;100755.41;;;26.36;73.49
38812;BME280;24553;51.640;-0.752;2023-07-20T11:53:14;100765.00;;;25.40;69.86
38812;BME280;24553;51.640;-0.752;2023-07-20T11:55:40;100761.06;;;24.68;70.79
38812;BME280;24553;51.640;-0.752;2023-07-20T11:58:07;100769.84;;;24.34;69.90
38812;BME280;24553;51.640;-0.752;2023-07-20T12:00:33;100769.69;;;23.74;70.65
38812;BME280;24553;51.640;-0.752;2023-07-20T12:02:59;100764.00;;;23.60;71.11
38812;BME280;24553;51.640;-0.752;2023-07-20T12:05:25;100767.78;;;23.75;70.77
38812;BME280;24553;51.640;-0.752;2023-07-20T12:07:51;100761.00;;;23.67;69.67
38812;BME280;24553;51.640;-0.752;2023-07-20T12:10:24;100761.28;;;23.55;70.02
38812;BME280;24553;51.640;-0.752;2023-07-20T12:12:50;100764.72;;;24.32;68.49
38812;BME280;24553;51.640;-0.752;2023-07-20T12:15:26;100747.47;;;24.73;64.64
38812;BME280;24553;51.640;-0.752;2023-07-20T12:17:53;100755.25;;;24.95;65.79
38812;BME280;24553;51.640;-0.752;2023-07-20T12:20:36;100752.19;;;25.46;64.40
38812;BME280;24553;51.640;-0.752;2023-07-20T12:23:02;100742.50;;;25.69;64.03
38812;BME280;24553;51.640;-0.752;2023-07-20T12:25:40;100748.28;;;25.57;62.73
38812;BME280;24553;51.640;-0.752;2023-07-20T12:28:16;100749.53;;;24.96;62.36
38812;BME280;24553;51.640;-0.752;2023-07-20T12:30:43;100743.69;;;24.74;64.62
38812;BME280;24553;51.640;-0.752;2023-07-20T12:33:09;100738.63;;;24.52;64.49
38812;BME280;24553;51.640;-0.752;2023-07-20T12:35:35;100736.25;;;24.45;65.97
38812;BME280;24553;51.640;-0.752;2023-07-20T12:38:00;100739.44;;;24.57;67.56
38812;BME280;24553;51.640;-0.752;2023-07-20T12:40:26;100734.50;;;24.70;69.54
38812;BME280;24553;51.640;-0.752;2023-07-20T12:42:51;100727.97;;;25.20;68.51
38812;BME280;24553;51.640;-0.752;2023-07-20T12:45:17;100725.41;;;25.34;66.93
38812;BME280;24553;51.640;-0.752;2023-07-20T12:47:42;100730.22;;;25.42;68.43
38812;BME280;24553;51.640;-0.752;2023-07-20T12:50:09;100733.81;;;25.67;66.40
38812;BME280;24553;51.640;-0.752;2023-07-20T12:52:39;100723.06;;;25.57;65.63
38812;BME280;24553;51.640;-0.752;2023-07-20T12:55:07;100725.41;;;25.34;65.92